createdAt,value
2018-11-23T00:02:22.070Z,29.30
2018-11-23T00:06:18.711Z,31.20
2018-11-23T00:10:17.510Z,29.40
2018-11-23T00:14:14.018Z,30.52
2018-11-23T00:18:10.504Z,34.20
2018-11-23T00:22:07.272Z,27.62
2018-11-23T00:26:03.957Z,27.90
2018-11-23T00:30:00.557Z,24.32
2018-11-23T00:33:57.809Z,26.13
2018-11-23T00:37:55.307Z,30.53
2018-11-23T00:41:52.113Z,29.93
2018-11-23T00:45:48.999Z,28.33
2018-11-23T00:49:45.741Z,30.27
2018-11-23T00:53:42.415Z,32.20
2018-11-23T00:57:39.293Z,28.13
2018-11-23T01:01:41.294Z,30.00
2018-11-23T01:05:38.044Z,28.43
2018-11-23T01:09:35.234Z,30.67
2018-11-23T01:13:31.952Z,31.00
2018-11-23T01:17:29.053Z,29.83
2018-11-23T01:21:25.858Z,31.03
2018-11-23T01:25:23.750Z,30.20
2018-11-23T01:29:20.425Z,35.65
2018-11-23T01:33:17.242Z,28.83
2018-11-23T01:37:14.002Z,28.30
2018-11-23T01:41:10.751Z,29.57
2018-11-23T01:45:09.349Z,29.87
2018-11-23T01:49:05.887Z,29.25
2018-11-23T01:53:02.531Z,33.67
2018-11-23T01:56:59.314Z,31.95
2018-11-23T02:00:56.214Z,31.50
2018-11-23T02:04:53.126Z,33.43
2018-11-23T02:08:50.358Z,28.90
2018-11-23T02:12:47.053Z,28.10
2018-11-23T02:16:43.857Z,29.15
2018-11-23T02:20:40.937Z,33.57
2018-11-23T02:24:37.677Z,32.03
2018-11-23T02:28:39.714Z,30.97
2018-11-23T02:32:36.579Z,28.60
2018-11-23T02:36:33.214Z,33.47
2018-11-23T02:40:30.087Z,30.93
2018-11-23T02:44:26.846Z,29.70
2018-11-23T02:48:23.672Z,30.07
2018-11-23T02:52:20.328Z,30.75
2018-11-23T02:56:17.223Z,28.60
2018-11-23T03:00:17.726Z,29.20
2018-11-23T03:04:14.487Z,29.23
2018-11-23T03:08:11.272Z,29.72
2018-11-23T03:12:08.108Z,29.23
2018-11-23T03:16:04.834Z,31.30
2018-11-23T03:20:01.692Z,27.90
2018-11-23T03:23:59.167Z,27.50
2018-11-23T03:27:56.090Z,33.03
2018-11-23T03:31:54.122Z,28.70
2018-11-23T03:35:51.811Z,25.93
2018-11-23T03:39:48.925Z,29.60
2018-11-23T03:43:45.743Z,33.20
2018-11-23T03:47:43.905Z,31.57
2018-11-23T03:51:40.614Z,30.73
2018-11-23T03:55:37.211Z,29.40
2018-11-23T03:59:33.897Z,30.87
2018-11-23T04:03:31.116Z,25.23
2018-11-23T04:07:27.435Z,28.57
2018-11-23T04:11:24.085Z,27.97
2018-11-23T04:15:20.761Z,31.33
2018-11-23T04:19:17.850Z,27.23
2018-11-23T04:23:14.782Z,25.55
2018-11-23T04:27:11.381Z,27.52
2018-11-23T04:31:12.654Z,26.80
2018-11-23T04:35:12.498Z,29.33
2018-11-23T04:39:10.048Z,29.42
2018-11-23T04:43:07.639Z,30.40
2018-11-23T04:47:04.885Z,30.03
2018-11-23T04:51:03.470Z,25.62
2018-11-23T04:55:00.237Z,29.67
2018-11-23T04:58:57.996Z,29.67
2018-11-23T05:02:54.621Z,28.97
2018-11-23T05:07:00.448Z,28.17
2018-11-23T05:10:57.157Z,28.67
2018-11-23T05:14:54.015Z,31.20
2018-11-23T05:18:50.846Z,30.70
2018-11-23T05:22:47.697Z,28.47
2018-11-23T05:26:44.813Z,28.40
2018-11-23T05:30:41.596Z,26.10
2018-11-23T05:34:38.641Z,27.13
2018-11-23T05:38:35.291Z,30.87
2018-11-23T05:42:31.810Z,33.00
2018-11-23T05:46:28.494Z,28.20
2018-11-23T05:50:26.936Z,27.20
2018-11-23T05:54:23.515Z,33.30
2018-11-23T05:58:20.115Z,34.50
2018-11-23T06:02:18.331Z,28.50
2018-11-23T06:06:14.941Z,29.00
2018-11-23T06:10:14.528Z,29.93
2018-11-23T06:14:11.325Z,35.67
2018-11-23T06:18:07.991Z,29.45
2018-11-23T06:22:04.837Z,30.30
2018-11-23T06:26:12.808Z,35.90
2018-11-23T06:30:12.250Z,35.55
2018-11-23T06:34:09.076Z,33.70
2018-11-23T06:38:05.984Z,35.83
2018-11-23T06:42:06.729Z,30.03
2018-11-23T06:46:05.105Z,33.43
2018-11-23T06:50:01.851Z,31.67
2018-11-23T06:54:00.586Z,35.47
2018-11-23T06:57:57.287Z,31.30
2018-11-23T07:01:54.346Z,32.37
2018-11-23T07:05:51.092Z,31.40
2018-11-23T07:09:48.334Z,31.02
2018-11-23T07:13:45.190Z,30.30
2018-11-23T07:17:42.830Z,29.50
2018-11-23T07:21:39.509Z,37.00
2018-11-23T07:25:36.496Z,31.93
2018-11-23T07:29:33.522Z,35.52
2018-11-23T07:33:30.584Z,31.97
2018-11-23T07:37:27.620Z,35.37
2018-11-23T07:41:41.065Z,31.77
2018-11-23T07:45:37.866Z,32.17
2018-11-23T07:49:35.789Z,30.25
2018-11-23T07:53:32.467Z,29.82
2018-11-23T07:57:29.209Z,30.13
2018-11-23T08:01:26.303Z,35.27
2018-11-23T08:05:23.185Z,30.63
2018-11-23T08:09:20.160Z,37.30
2018-11-23T08:13:17.186Z,33.97
2018-11-23T08:17:13.983Z,33.07
2018-11-23T08:21:11.204Z,32.13
2018-11-23T08:25:09.734Z,34.13
2018-11-23T08:29:06.682Z,35.60
2018-11-23T08:33:04.429Z,33.90
2018-11-23T08:37:01.090Z,33.70
2018-11-23T08:40:57.669Z,34.43
2018-11-23T08:44:54.811Z,32.43
2018-11-23T08:48:51.698Z,36.30
2018-11-23T08:52:48.317Z,29.80
2018-11-23T08:56:44.976Z,31.55
2018-11-23T09:00:42.937Z,35.83
2018-11-23T09:04:39.769Z,45.23
2018-11-23T09:08:38.281Z,38.67
2018-11-23T09:12:34.837Z,34.90
2018-11-23T09:16:32.077Z,38.50
2018-11-23T09:20:29.182Z,39.73
2018-11-23T09:24:26.562Z,36.57
2018-11-23T09:28:23.405Z,40.80
2018-11-23T09:32:20.293Z,36.53
2018-11-23T09:36:17.150Z,33.53
2018-11-23T09:40:16.213Z,37.77
2018-11-23T09:44:13.861Z,38.50
2018-11-23T09:48:10.659Z,37.90
2018-11-23T09:52:07.664Z,38.47
2018-11-23T09:56:04.748Z,37.20
2018-11-23T10:00:01.776Z,42.43
2018-11-23T10:03:58.632Z,36.87
2018-11-23T10:07:56.817Z,37.57
2018-11-23T10:11:53.648Z,31.60
2018-11-23T10:15:50.986Z,38.90
2018-11-23T10:19:47.854Z,34.35
2018-11-23T10:23:44.887Z,39.63
2018-11-23T10:27:42.339Z,36.57
2018-11-23T10:31:39.361Z,36.50
2018-11-23T10:35:36.272Z,39.60
2018-11-23T10:39:34.154Z,35.37
2018-11-23T10:43:32.003Z,33.67
2018-11-23T10:47:28.795Z,35.73
2018-11-23T10:51:25.512Z,36.27
2018-11-23T10:55:24.253Z,34.80
2018-11-23T10:59:20.967Z,47.90
2018-11-23T11:03:34.139Z,37.10
2018-11-23T11:07:31.343Z,36.97
2018-11-23T11:11:28.319Z,42.70
2018-11-23T11:15:25.229Z,35.33
2018-11-23T11:19:21.979Z,34.03
2018-11-23T11:23:18.995Z,42.17
2018-11-23T11:27:15.934Z,38.92
2018-11-23T11:31:12.806Z,33.13
2018-11-23T11:35:10.759Z,38.83
2018-11-23T11:39:12.090Z,39.57
2018-11-23T11:43:08.945Z,33.50
2018-11-23T11:47:06.709Z,37.00
2018-11-23T11:51:04.124Z,35.27
2018-11-23T11:55:01.772Z,42.47
2018-11-23T11:58:58.524Z,33.78
2018-11-23T12:02:55.820Z,41.20
2018-11-23T12:06:55.700Z,36.25
2018-11-23T12:10:52.760Z,38.55
2018-11-23T12:14:49.522Z,36.98
2018-11-23T12:18:46.298Z,36.20
2018-11-23T12:22:43.333Z,35.23
2018-11-23T12:33:05.212Z,38.80
2018-11-23T12:37:02.612Z,35.67
2018-11-23T12:40:59.092Z,35.23
2018-11-23T12:44:56.220Z,34.97
2018-11-23T12:48:52.926Z,32.37
2018-11-23T12:52:49.724Z,38.37
2018-11-23T12:56:46.835Z,34.80
2018-11-23T13:00:43.567Z,36.70
2018-11-23T13:04:40.427Z,32.57
2018-11-23T13:08:37.204Z,36.13
2018-11-23T13:12:33.949Z,34.40
2018-11-23T13:16:30.287Z,51.80
2018-11-23T13:20:26.925Z,34.90
2018-11-23T13:24:25.064Z,35.97
2018-11-23T13:28:22.226Z,30.17
2018-11-23T13:32:19.045Z,33.93
2018-11-23T13:36:15.912Z,36.43
2018-11-23T13:40:15.505Z,41.40
2018-11-23T13:44:12.238Z,38.47
2018-11-23T13:48:08.834Z,33.90
2018-11-23T13:52:05.188Z,34.57
2018-11-23T13:56:02.780Z,33.07
2018-11-23T13:59:59.501Z,36.87
2018-11-23T14:03:56.330Z,33.13
2018-11-23T14:07:54.407Z,38.87
2018-11-23T14:11:52.082Z,32.47
2018-11-23T14:15:48.712Z,34.43
2018-11-23T14:19:45.578Z,36.60
2018-11-23T14:23:42.717Z,34.97
2018-11-23T14:27:39.354Z,34.83
2018-11-23T14:31:35.979Z,35.87
2018-11-23T14:35:33.972Z,30.10
2018-11-23T14:39:31.266Z,30.87
2018-11-23T14:43:27.881Z,30.13
2018-11-23T14:47:24.865Z,29.40
2018-11-23T14:51:21.701Z,30.47
2018-11-23T14:55:18.619Z,33.67
2018-11-23T14:59:15.712Z,33.30
2018-11-23T15:03:12.483Z,32.10
2018-11-23T15:07:09.519Z,32.13
2018-11-23T15:11:07.553Z,33.47
2018-11-23T15:15:04.462Z,30.93
2018-11-23T15:19:01.685Z,31.93
2018-11-23T15:23:01.819Z,38.30
2018-11-23T15:26:58.727Z,38.23
2018-11-23T15:30:56.806Z,35.57
2018-11-23T15:34:53.606Z,30.60
2018-11-23T15:38:50.395Z,32.57
2018-11-23T15:42:47.848Z,34.27
2018-11-23T15:46:44.901Z,31.27
2018-11-23T15:50:42.603Z,43.30
2018-11-23T15:54:39.548Z,28.43
2018-11-23T15:58:36.708Z,31.53
2018-11-23T16:02:33.406Z,32.40
2018-11-23T16:06:29.952Z,36.13
2018-11-23T16:10:28.423Z,31.40
2018-11-23T16:14:25.230Z,29.77
2018-11-23T16:18:22.506Z,36.70
2018-11-23T16:22:19.324Z,30.10
2018-11-23T16:26:15.998Z,30.63
2018-11-23T16:30:18.246Z,33.63
2018-11-23T16:34:15.369Z,30.97
2018-11-23T16:38:15.179Z,28.83
2018-11-23T16:42:12.182Z,31.00
2018-11-23T16:46:09.075Z,33.60
2018-11-23T16:50:11.048Z,34.90
2018-11-23T16:54:14.704Z,34.40
2018-11-23T16:58:29.455Z,36.07
2018-11-23T17:06:44.356Z,32.70
2018-11-23T17:10:42.437Z,35.00
2018-11-23T17:14:40.126Z,32.67
2018-11-23T17:18:40.069Z,37.23
2018-11-23T17:22:37.682Z,41.83
2018-11-23T17:26:36.533Z,44.23
2018-11-23T17:30:35.349Z,42.37
2018-11-23T17:34:34.515Z,45.40
2018-11-23T17:38:37.713Z,42.83
2018-11-23T17:42:32.525Z,45.60
2018-11-23T17:46:31.721Z,49.83
2018-11-23T17:50:30.644Z,49.30
2018-11-23T17:54:29.318Z,40.67
2018-11-23T17:58:26.963Z,48.53
2018-11-23T18:02:26.794Z,47.23
2018-11-23T18:06:26.028Z,46.60
2018-11-23T18:10:27.623Z,63.20
2018-11-23T18:14:27.141Z,58.60
2018-11-23T18:18:26.391Z,48.03
2018-11-23T18:22:23.995Z,43.63
2018-11-23T18:26:20.971Z,50.30
2018-11-23T18:30:19.112Z,44.90
2018-11-23T18:34:16.624Z,43.50
2018-11-23T18:38:15.679Z,45.77
2018-11-23T18:42:12.602Z,46.37
2018-11-23T18:46:10.586Z,47.57
2018-11-23T18:50:13.066Z,45.13
2018-11-23T18:54:10.231Z,49.40
2018-11-23T18:58:07.883Z,43.63
2018-11-23T19:02:05.971Z,43.20
2018-11-23T19:06:03.808Z,46.00
2018-11-23T19:10:01.764Z,48.93
2018-11-23T19:13:59.886Z,46.27
2018-11-23T19:17:58.138Z,44.63
2018-11-23T19:21:55.537Z,47.10
2018-11-23T19:25:52.419Z,34.03
2018-11-23T19:29:51.077Z,40.33
2018-11-23T19:33:47.790Z,40.93
2018-11-23T19:37:44.842Z,40.97
2018-11-23T19:41:42.789Z,35.33
2018-11-23T19:45:40.891Z,40.50
2018-11-23T19:49:39.151Z,39.73
2018-11-23T19:53:37.015Z,38.67
2018-11-23T19:57:34.278Z,42.67
2018-11-23T20:01:31.280Z,40.83
2018-11-23T20:05:30.159Z,41.00
2018-11-23T20:09:27.306Z,42.13
2018-11-23T20:13:24.456Z,39.67
2018-11-23T20:17:23.756Z,38.80
2018-11-23T20:21:20.880Z,45.93
2018-11-23T20:25:19.683Z,44.77
2018-11-23T20:29:16.813Z,44.30
2018-11-23T20:33:14.537Z,45.07
2018-11-23T20:37:11.227Z,41.30
2018-11-23T20:41:08.200Z,40.43
2018-11-23T20:45:07.203Z,40.60
2018-11-23T20:49:04.303Z,41.37
2018-11-23T20:53:01.135Z,39.13
2018-11-23T20:56:57.911Z,35.53
2018-11-23T21:00:54.811Z,39.80
2018-11-23T21:04:52.856Z,38.93
2018-11-23T21:08:50.183Z,33.47
2018-11-23T21:12:46.972Z,33.07
2018-11-23T21:16:43.756Z,38.20
2018-11-23T21:20:40.795Z,36.97
2018-11-23T21:24:37.585Z,33.90
2018-11-23T21:28:34.446Z,35.97
2018-11-23T21:32:31.721Z,36.40
2018-11-23T21:36:29.602Z,34.07
2018-11-23T21:40:29.116Z,35.63
2018-11-23T21:44:26.048Z,34.67
2018-11-23T21:48:23.418Z,35.60
2018-11-23T21:52:20.416Z,37.13
2018-11-23T21:56:17.740Z,35.90
2018-11-23T22:00:15.865Z,42.03
2018-11-23T22:04:12.641Z,39.03
2018-11-23T22:08:09.348Z,37.93
2018-11-23T22:12:06.857Z,36.40
2018-11-23T22:16:04.100Z,37.70
2018-11-23T22:20:01.247Z,37.37
2018-11-23T22:24:01.733Z,36.00
2018-11-23T22:27:56.543Z,43.40
2018-11-23T22:31:53.385Z,40.73
2018-11-23T22:35:50.144Z,41.00
2018-11-23T22:39:47.801Z,39.07
2018-11-23T22:43:44.606Z,41.17
2018-11-23T22:47:41.953Z,47.87
2018-11-23T22:51:38.679Z,38.57
2018-11-23T22:55:36.290Z,37.40
2018-11-23T22:59:33.047Z,38.73
2018-11-23T23:03:30.976Z,41.83
2018-11-23T23:07:28.835Z,39.23
2018-11-23T23:11:25.650Z,37.03
2018-11-23T23:15:22.564Z,42.10
2018-11-23T23:19:19.341Z,43.23
2018-11-23T23:23:16.190Z,37.63
2018-11-23T23:27:12.959Z,41.33
2018-11-23T23:31:10.569Z,38.47
2018-11-23T23:35:09.450Z,37.53
2018-11-23T23:39:08.774Z,41.53
2018-11-23T23:43:05.487Z,35.67
2018-11-23T23:47:02.337Z,39.97
2018-11-23T23:50:59.074Z,39.07
2018-11-23T23:54:56.482Z,35.53
2018-11-23T23:58:53.175Z,39.23
